WetterOnline ( https://www.wetteronline.de )

Wetter aktuell Sankt Peter-Ording

Aktuelles Wetter: St. Peter-Ording (11m)

6-stündlich | Neueste Meldungen
Ortszeit Temperatur Wetter
Mi, 06.07. 2:00 14.9° C bedeckt
Di, 05.07. 20:00 15.6° C bedeckt
Di, 05.07. 14:00 17.5° C leicht bewölkt
Di, 05.07. 8:00 17.1° C fast wolkenlos
Di, 05.07. 2:00 16.2° C bewölkt
Mo, 04.07. 20:00 17.1° C leicht bewölkt
Mo, 04.07. 14:00 19.2° C fast wolkenlos
Mo, 04.07. 8:00 16.8° C leicht bewölkt
Ortszeit Temperatur Wetter
Mi, 06.07. 5:00 14.8° C bewölkt
Mi, 06.07. 4:50 14.8° C bewölkt
Mi, 06.07. 4:40 15.0° C bewölkt
Mi, 06.07. 4:30 14.9° C bedeckt
Mi, 06.07. 4:20 14.9° C bedeckt
Mi, 06.07. 4:10 14.8° C bedeckt
Mi, 06.07. 4:00 14.9° C bedeckt
Mi, 06.07. 3:30 15.1° C bewölkt
Mi, 06.07. 3:00 15.2° C bedeckt
Mi, 06.07. 2:30 15.1° C bewölkt
Mi, 06.07. 2:00 14.9° C bedeckt
Ortszeit Relative Feuchte Sichtweite
Mi, 06.07. 2:00 67% 40 km
Di, 05.07. 20:00 78% 35 km
Di, 05.07. 14:00 68% 60 km
Di, 05.07. 8:00 71% 45 km
Di, 05.07. 2:00 73% 35 km
Mo, 04.07. 20:00 69% 35 km
Mo, 04.07. 14:00 65% 40 km
Mo, 04.07. 8:00 75% 40 km
Ortszeit Relative Feuchte Sichtweite
Mi, 06.07. 5:00 69% 40 km
Mi, 06.07. 4:50 69% -
Mi, 06.07. 4:40 70% -
Mi, 06.07. 4:30 71% 40 km
Mi, 06.07. 4:20 71% -
Mi, 06.07. 4:10 71% -
Mi, 06.07. 4:00 70% 50 km
Mi, 06.07. 3:30 72% 40 km
Mi, 06.07. 3:00 74% 35 km
Mi, 06.07. 2:30 73% 35 km
Mi, 06.07. 2:00 67% 40 km
Ortszeit Niederschlagsmenge Niederschlagsart
Mi, 06.07. 2:00 0.1 l/m2 in 6 Std. Regen
Di, 05.07. 20:00 2 l/m2 in 12 Std. Regen
Di, 05.07. 14:00 1 l/m2 in 6 Std. Regen
Di, 05.07. 8:00 0.0 l/m2 in 12 Std. -
Di, 05.07. 2:00 0.0 l/m2 in 6 Std. -
Mo, 04.07. 20:00 0.1 l/m2 in 12 Std. -
Mo, 04.07. 14:00 0.1 l/m2 in 6 Std. Regen
Mo, 04.07. 8:00 2 l/m2 in 12 Std. -
Ortszeit Niederschlagsmenge Niederschlagsart
Mi, 06.07. 5:00 0.0 l/m2 in 1 Std. -
Mi, 06.07. 4:50 keine Meldung -
Mi, 06.07. 4:40 keine Meldung -
Mi, 06.07. 4:30 0.0 l/m2 in 1 Std. -
Mi, 06.07. 4:20 keine Meldung -
Mi, 06.07. 4:10 keine Meldung -
Mi, 06.07. 4:00 0.0 l/m2 in 1 Std. -
Mi, 06.07. 3:30 0.0 l/m2 in 1 Std. -
Mi, 06.07. 3:00 0.0 l/m2 in 1 Std. -
Mi, 06.07. 2:30 0.0 l/m2 in 1 Std. -
Mi, 06.07. 2:00 0.0 l/m2 in 1 Std. Regen
Ortszeit Stärke Spitze Richtung
km/h Bft. km/h Grad Sektor
Mi, 06.07. 2:00 28 4 44 290° W
Di, 05.07. 20:00 26 4 50 290° W
Di, 05.07. 14:00 32 5 58 270° W
Di, 05.07. 8:00 33 5 52 260° W
Di, 05.07. 2:00 36 5 50 260° W
Mo, 04.07. 20:00 39 6 54 270° W
Mo, 04.07. 14:00 33 5 50 260° W
Mo, 04.07. 8:00 25 4 40 250° W
Ortszeit Stärke Spitze Richtung
km/h Bft. km/h Grad Sektor
Mi, 06.07. 5:00 32 5 47 300° NW
Mi, 06.07. 4:50 32 5 - 300° NW
Mi, 06.07. 4:40 31 5 - 300° NW
Mi, 06.07. 4:30 35 5 44 290° W
Mi, 06.07. 4:20 35 5 - 290° W
Mi, 06.07. 4:10 31 5 - 300° NW
Mi, 06.07. 4:00 31 5 44 290° W
Mi, 06.07. 3:30 30 5 44 300° NW
Mi, 06.07. 3:00 30 5 41 290° W
Mi, 06.07. 2:30 28 4 39 300° NW
Mi, 06.07. 2:00 28 4 37 290° W
Ortszeit Untergrenze Bedeckung Gattung
total tief tief mittel hoch
Mi, 06.07. 2:00 810 m 8/8 8/8 - - -
Di, 05.07. 20:00 840 m 8/8 8/8 - - -
Di, 05.07. 14:00 2100 m 3/8 3/8 - - -
Di, 05.07. 8:00 1800 m 1/8 1/8 - - -
Di, 05.07. 2:00 690 m 7/8 7/8 - - -
Mo, 04.07. 20:00 9000 m 3/8 0/8 - - -
Mo, 04.07. 14:00 540 m 1/8 1/8 - - -
Mo, 04.07. 8:00 570 m 3/8 3/8 - - -
Ortszeit Bedeckungsgrad in Achtel und Wolkenuntergrenze
Mi, 06.07. 5:00 1(750m) 7(2100m)
Mi, 06.07. 4:50 1(750m) 7(2100m)
Mi, 06.07. 4:40 7
Mi, 06.07. 4:30 8(1800m)
Mi, 06.07. 4:20 8(1800m)
Mi, 06.07. 4:10 8
Mi, 06.07. 4:00 2(720m) 3(1170m) 8(1800m)
Mi, 06.07. 3:30 2(780m) 7(1800m)
Mi, 06.07. 3:00 4(750m) 5(1200m) 8(1800m)
Mi, 06.07. 2:30 1(750m) 7(1800m)
Mi, 06.07. 2:00 2(810m) 3(1020m) 8(1800m)
Ortszeit Luftdruck NN (hPa) Tendenz (hPa in 3 Std.)
Mi, 06.07. 2:00 1022 + 0,1
Di, 05.07. 20:00 1021 0,0
Di, 05.07. 14:00 1021 + 0,7
Di, 05.07. 8:00 1019 + 0,6
Di, 05.07. 2:00 1018 - 0,1
Mo, 04.07. 20:00 1018 - 0,3
Mo, 04.07. 14:00 1018 + 0,1
Mo, 04.07. 8:00 1018 + 0,5
Ortszeit Luftdruck NN (hPa) Tendenz (hPa in 3 Std.)
Mi, 06.07. 5:00 1021 - 0,3
Mi, 06.07. 4:50 1021 keine Meldung
Mi, 06.07. 4:40 1021 keine Meldung
Mi, 06.07. 4:30 1021 - 0,4
Mi, 06.07. 4:20 1021 keine Meldung
Mi, 06.07. 4:10 1021 keine Meldung
Mi, 06.07. 4:00 1021 - 0,3
Mi, 06.07. 3:30 1021 - 0,2
Mi, 06.07. 3:00 1022 0,0
Mi, 06.07. 2:30 1022 + 0,1
Mi, 06.07. 2:00 1022 + 0,1
Ortszeit Schneehöhe (cm)
Mi, 06.07. 2:00 0
Di, 05.07. 20:00 0
Di, 05.07. 14:00 0
Di, 05.07. 8:00 0
Di, 05.07. 2:00 0
Mo, 04.07. 20:00 0
Mo, 04.07. 14:00 0
Mo, 04.07. 8:00 0
Ortszeit Schneehöhe (cm)
Mi, 06.07. 5:00 0
Mi, 06.07. 4:50 0
Mi, 06.07. 4:40 0
Mi, 06.07. 4:30 0
Mi, 06.07. 4:20 0
Mi, 06.07. 4:10 0
Mi, 06.07. 4:00 0
Mi, 06.07. 3:30 0
Mi, 06.07. 3:00 0
Mi, 06.07. 2:30 0
Mi, 06.07. 2:00 0
Link zu dieser Seite / Seite empfehlen

Das Wetter in ...